Time;durP1;ratioP1;P1;durP2;ratioP2;P2;SDS_P1;SDS_P2;PMS_P1;PMS_P2;Temp;Humidity;BMP_temperature;BMP_pressure;BME280_temperature;BME280_humidity;BME280_pressure;Samples;Min_cycle;Max_cycle;Signal;HPM_P1;HPM_P2
2021/12/03 00:00:52;;;;;;;12.10;8.83;;;0.50;99.90;;;;;;5020400;28;20453;-52
2021/12/03 00:03:17;;;;;;;12.47;8.20;;;0.60;99.90;;;;;;5017595;28;20449;-53
2021/12/03 00:05:43;;;;;;;15.40;8.87;;;0.60;3.70;;;;;;5016280;28;21014;-52
2021/12/03 00:08:09;;;;;;;12.53;8.47;;;0.70;1.00;;;;;;5019425;28;20445;-52
2021/12/03 00:10:37;;;;;;;12.73;7.33;;;0.70;1.00;;;;;;5017567;28;20453;-52
2021/12/03 00:13:05;;;;;;;11.73;7.40;;;0.80;65.80;;;;;;5016865;28;20211;-52
2021/12/03 00:15:31;;;;;;;13.40;7.60;;;0.90;1.00;;;;;;5019632;28;20438;-52
2021/12/03 00:17:57;;;;;;;15.73;9.23;;;0.80;15.30;;;;;;5016399;28;20753;-52
2021/12/03 00:20:24;;;;;;;11.53;7.13;;;0.80;99.90;;;;;;5019933;28;20570;-52
2021/12/03 00:22:53;;;;;;;12.03;7.93;;;0.80;99.90;;;;;;5018648;28;20593;-52
2021/12/03 00:25:18;;;;;;;13.00;7.77;;;0.80;99.90;;;;;;5017596;28;20488;-52
2021/12/03 00:27:45;;;;;;;12.80;8.10;;;0.90;99.90;;;;;;5019443;28;20441;-54
2021/12/03 00:30:12;;;;;;;10.07;6.20;;;0.80;1.00;;;;;;5015862;28;20294;-52
2021/12/03 00:32:38;;;;;;;16.20;7.57;;;0.80;99.90;;;;;;5016955;28;21003;-52
2021/12/03 00:35:06;;;;;;;15.10;7.67;;;0.90;99.90;;;;;;5018757;28;20442;-52
2021/12/03 00:37:32;;;;;;;12.70;7.17;;;0.80;99.90;;;;;;5017544;28;20446;-53
2021/12/03 00:39:58;;;;;;;15.60;6.90;;;0.70;99.90;;;;;;5017933;28;20996;-52
2021/12/03 00:42:26;;;;;;;15.50;7.23;;;0.80;56.90;;;;;;5018396;28;20260;-52
2021/12/03 00:44:55;;;;;;;11.00;6.80;;;0.70;1.00;;;;;;5017127;28;20454;-51
2021/12/03 00:47:21;;;;;;;10.70;6.50;;;0.70;99.90;;;;;;5016159;28;20576;-52
2021/12/03 00:49:46;;;;;;;9.93;6.13;;;0.70;99.90;;;;;;5018054;28;20595;-51
2021/12/03 00:52:12;;;;;;;8.50;6.17;;;0.70;99.90;;;;;;5015422;28;20223;-52
2021/12/03 00:54:37;;;;;;;9.20;5.50;;;0.70;99.90;;;;;;5016682;28;20200;-52
2021/12/03 00:57:04;;;;;;;12.20;5.80;;;0.80;99.90;;;;;;5019506;28;20191;-52
2021/12/03 00:59:30;;;;;;;10.07;5.40;;;0.90;1.00;;;;;;5014860;28;20242;-52
2021/12/03 01:01:56;;;;;;;9.43;4.17;;;0.90;99.90;;;;;;5018352;28;20959;-53
2021/12/03 01:04:21;;;;;;;6.27;3.97;;;0.90;1.00;;;;;;5015455;28;20450;-52
2021/12/03 01:06:47;;;;;;;7.40;4.53;;;0.90;1.00;;;;;;5016545;28;20524;-52
2021/12/03 01:09:13;;;;;;;6.70;4.07;;;0.90;99.90;;;;;;5018826;28;20193;-52
2021/12/03 01:11:39;;;;;;;10.23;4.40;;;0.90;1.00;;;;;;5015583;28;20866;-52
2021/12/03 01:14:05;;;;;;;6.70;4.53;;;1.00;95.70;;;;;;5018790;28;20549;-51
2021/12/03 01:16:31;;;;;;;8.03;4.00;;;0.90;1.00;;;;;;5019602;28;20187;-51
2021/12/03 01:18:58;;;;;;;9.47;4.00;;;1.00;24.90;;;;;;5016635;28;20194;-51
2021/12/03 01:21:24;;;;;;;7.30;4.27;;;0.90;99.90;;;;;;5016842;28;20453;-53
2021/12/03 01:23:50;;;;;;;7.63;4.50;;;0.90;52.20;;;;;;5018273;28;20485;-52
2021/12/03 01:26:18;;;;;;;7.20;3.70;;;0.90;99.90;;;;;;5014446;28;20438;-52
2021/12/03 01:28:44;;;;;;;8.90;4.07;;;1.00;1.00;;;;;;5017038;28;20438;-52
2021/12/03 01:31:10;;;;;;;7.57;4.20;;;1.00;1.00;;;;;;5018571;28;20957;-52
2021/12/03 01:33:35;;;;;;;12.03;4.37;;;1.00;99.90;;;;;;5014688;28;20211;-52
2021/12/03 01:36:01;;;;;;;7.13;4.47;;;0.90;99.90;;;;;;5017672;28;20227;-52
2021/12/03 01:38:27;;;;;;;14.17;4.37;;;1.00;99.90;;;;;;5014848;28;20192;-52
2021/12/03 01:40:52;;;;;;;6.43;4.20;;;0.90;1.00;;;;;;5017803;28;21068;-52
2021/12/03 01:43:22;;;;;;;8.30;4.30;;;0.90;99.90;;;;;;5016703;28;20654;-52
2021/12/03 01:45:52;;;;;;;8.07;4.67;;;1.00;1.00;;;;;;5015566;28;20192;-52
2021/12/03 01:48:18;;;;;;;9.63;5.07;;;1.00;1.00;;;;;;5014806;28;20453;-52
2021/12/03 01:50:45;;;;;;;8.70;5.20;;;1.00;1.00;;;;;;5032036;28;20496;-52
2021/12/03 01:53:12;;;;;;;9.60;5.37;;;1.00;1.00;;;;;;5015385;28;20412;-53
2021/12/03 01:55:40;;;;;;;8.90;5.63;;;1.00;99.90;;;;;;5015339;28;20437;-52
2021/12/03 01:58:07;;;;;;;9.17;6.17;;;1.00;11.00;;;;;;5019369;28;20452;-52
2021/12/03 02:00:47;;;;;;;9.27;6.20;;;1.00;1.00;;;;;;5015205;28;20531;-52
2021/12/03 02:03:14;;;;;;;7.70;5.70;;;1.00;99.90;;;;;;5016376;28;20480;-52
2021/12/03 02:05:41;;;;;;;10.07;5.90;;;0.90;99.90;;;;;;5017329;28;20449;-52
2021/12/03 02:08:07;;;;;;;8.63;6.20;;;0.90;91.50;;;;;;5015814;28;20847;-52
2021/12/03 02:10:33;;;;;;;12.97;6.63;;;0.90;44.20;;;;;;5015260;28;20441;-52
2021/12/03 02:12:59;;;;;;;13.80;6.73;;;0.90;28.40;;;;;;5017398;28;20581;-51
2021/12/03 02:15:26;;;;;;;9.70;6.37;;;0.90;1.00;;;;;;5017067;28;20473;-53
2021/12/03 02:17:51;;;;;;;9.80;6.47;;;0.80;99.90;;;;;;5016085;28;20438;-52
2021/12/03 02:20:18;;;;;;;11.40;7.20;;;0.80;1.00;;;;;;5018343;28;20528;-51
2021/12/03 02:22:45;;;;;;;10.77;7.03;;;0.80;1.00;;;;;;5014550;28;20249;-51
2021/12/03 02:25:14;;;;;;;12.40;6.57;;;0.80;99.90;;;;;;5016284;28;20476;-51
2021/12/03 02:27:40;;;;;;;8.87;6.30;;;0.80;1.00;;;;;;5017042;28;20450;-51
2021/12/03 02:30:07;;;;;;;8.30;6.10;;;0.80;1.00;;;;;;5015567;28;21032;-53
2021/12/03 02:32:33;;;;;;;10.77;6.30;;;0.80;1.00;;;;;;5017550;28;20504;-52
2021/12/03 02:34:59;;;;;;;9.63;6.70;;;0.80;1.00;;;;;;5016679;28;20450;-51
2021/12/03 02:37:24;;;;;;;13.83;6.73;;;0.80;1.00;;;;;;5015344;28;20188;-52
2021/12/03 02:39:50;;;;;;;9.10;6.50;;;0.80;1.00;;;;;;5016069;28;20187;-59
2021/12/03 02:42:15;;;;;;;10.37;6.13;;;0.80;1.00;;;;;;5018751;28;20638;-51
2021/12/03 02:44:41;;;;;;;10.73;6.30;;;0.80;1.00;;;;;;5014419;28;20223;-52
2021/12/03 02:47:07;;;;;;;9.93;6.60;;;0.80;99.90;;;;;;5017822;28;20680;-51
2021/12/03 02:49:40;;;;;;;9.37;5.97;;;0.80;1.00;;;;;;5015033;28;20234;-52
2021/12/03 02:52:06;;;;;;;9.07;5.90;;;0.90;1.00;;;;;;5014440;28;20846;-52
2021/12/03 02:54:32;;;;;;;8.87;5.10;;;1.00;1.00;;;;;;5016620;28;20947;-52
2021/12/03 02:56:58;;;;;;;8.63;5.50;;;1.00;1.00;;;;;;5013724;28;20456;-51
2021/12/03 02:59:23;;;;;;;9.30;4.73;;;1.00;1.00;;;;;;5014915;28;20190;-52
2021/12/03 03:01:49;;;;;;;5.30;4.70;;;1.00;99.90;;;;;;5019011;28;20191;-51
2021/12/03 03:04:14;;;;;;;7.70;5.23;;;1.10;99.90;;;;;;5013965;28;20202;-52
2021/12/03 03:06:40;;;;;;;8.90;5.90;;;1.10;99.90;;;;;;5019045;28;20190;-51
2021/12/03 03:09:11;;;;;;;12.00;6.13;;;1.10;99.90;;;;;;5020589;28;20187;-54
2021/12/03 03:11:37;;;;;;;7.60;5.83;;;1.20;99.90;;;;;;5017451;28;23838;-51
2021/12/03 03:14:04;;;;;;;10.17;6.63;;;1.20;99.90;;;;;;5019566;28;20484;-52
2021/12/03 03:16:31;;;;;;;9.10;6.63;;;1.20;99.90;;;;;;5021861;28;20442;-53
2021/12/03 03:18:57;;;;;;;14.33;7.10;;;1.20;99.90;;;;;;5016845;28;20438;-52
2021/12/03 03:21:22;;;;;;;16.50;9.10;;;1.20;43.10;;;;;;5021250;28;20503;-51
2021/12/03 03:23:49;;;;;;;11.87;8.17;;;1.20;1.00;;;;;;5018210;28;20950;-52
2021/12/03 03:26:15;;;;;;;14.20;8.37;;;1.20;95.60;;;;;;5018701;28;20245;-54
2021/12/03 03:28:42;;;;;;;12.13;8.20;;;1.20;1.00;;;;;;5020121;28;20446;-51
2021/12/03 03:31:08;;;;;;;13.20;8.43;;;1.20;1.00;;;;;;5018461;28;20275;-52
2021/12/03 03:33:34;;;;;;;13.73;8.10;;;1.10;1.00;;;;;;5017648;28;20469;-51
2021/12/03 03:36:00;;;;;;;12.07;8.53;;;1.00;99.90;;;;;;5019496;28;20187;-51
2021/12/03 03:38:26;;;;;;;15.97;7.87;;;1.00;99.90;;;;;;5017663;28;20233;-53
2021/12/03 03:40:52;;;;;;;15.70;9.03;;;1.00;99.90;;;;;;5018233;28;20475;-52
2021/12/03 03:43:18;;;;;;;10.07;7.90;;;1.00;4.90;;;;;;5021187;28;20187;-51
2021/12/03 03:45:44;;;;;;;13.33;8.00;;;1.00;13.50;;;;;;5017339;28;20456;-52
2021/12/03 03:48:12;;;;;;;13.63;8.10;;;0.90;1.00;;;;;;5020069;28;20485;-52
2021/12/03 03:50:38;;;;;;;11.03;8.40;;;1.00;47.10;;;;;;5023439;28;20555;-54
2021/12/03 03:53:04;;;;;;;13.77;8.70;;;0.90;99.90;;;;;;5016761;28;20555;-52
2021/12/03 03:55:31;;;;;;;11.57;7.60;;;1.00;1.00;;;;;;5018268;28;20445;-52
2021/12/03 03:57:59;;;;;;;12.10;7.70;;;1.00;1.00;;;;;;5019544;28;21042;-52
2021/12/03 04:00:29;;;;;;;13.90;7.90;;;1.00;1.00;;;;;;5015824;28;20446;-52
2021/12/03 04:02:55;;;;;;;12.13;8.00;;;1.00;99.90;;;;;;5019455;28;20463;-52
2021/12/03 04:05:21;;;;;;;13.63;7.23;;;1.00;47.50;;;;;;5021095;28;20877;-51
2021/12/03 04:07:46;;;;;;;12.23;7.70;;;0.90;99.90;;;;;;5015734;28;20192;-51
2021/12/03 04:10:12;;;;;;;13.43;7.93;;;0.90;1.00;;;;;;5018918;28;20191;-52
2021/12/03 04:12:38;;;;;;;10.53;7.37;;;0.90;99.90;;;;;;5018769;28;20207;-51
2021/12/03 04:15:06;;;;;;;13.00;7.50;;;0.90;1.00;;;;;;5016134;28;20274;-52
2021/12/03 04:17:32;;;;;;;12.00;8.43;;;0.80;1.00;;;;;;5015332;28;20944;-51
2021/12/03 04:19:58;;;;;;;10.80;7.57;;;0.80;99.90;;;;;;5020340;28;20449;-52
2021/12/03 04:22:24;;;;;;;13.37;8.50;;;0.80;99.90;;;;;;5016341;28;20446;-52
2021/12/03 04:24:51;;;;;;;12.80;7.77;;;0.70;99.90;;;;;;5018608;28;20179;-52
2021/12/03 04:27:17;;;;;;;11.93;7.90;;;0.80;99.90;;;;;;5017463;28;20927;-52
2021/12/03 04:29:43;;;;;;;12.50;7.57;;;0.80;25.00;;;;;;5016384;28;20445;-52
2021/12/03 04:32:09;;;;;;;10.33;7.70;;;0.80;99.90;;;;;;5018125;28;20214;-51
2021/12/03 04:34:35;;;;;;;14.53;8.40;;;0.80;99.90;;;;;;5017528;28;20274;-52
2021/12/03 04:37:01;;;;;;;16.30;8.30;;;0.80;1.00;;;;;;5017963;28;20187;-52
2021/12/03 04:39:26;;;;;;;12.80;8.63;;;0.80;1.00;;;;;;5020045;28;20793;-53
2021/12/03 04:41:52;;;;;;;12.50;7.33;;;0.70;1.00;;;;;;5015018;28;20196;-52
2021/12/03 04:44:17;;;;;;;11.20;7.63;;;0.70;1.00;;;;;;5018076;28;20716;-53
2021/12/03 04:46:43;;;;;;;14.43;8.47;;;0.60;1.00;;;;;;5020476;28;20585;-52
2021/12/03 04:49:08;;;;;;;16.80;8.30;;;0.60;99.90;;;;;;5015218;28;20245;-52
2021/12/03 04:51:35;;;;;;;13.90;8.00;;;0.60;81.30;;;;;;5017448;28;20194;-52
2021/12/03 04:54:01;;;;;;;14.00;7.83;;;0.50;1.00;;;;;;5017600;28;20180;-51
2021/12/03 04:56:26;;;;;;;11.07;8.10;;;0.50;99.90;;;;;;5016435;28;20948;-52
2021/12/03 04:58:52;;;;;;;15.93;8.60;;;0.50;1.00;;;;;;5019240;28;20683;-52
2021/12/03 05:01:17;;;;;;;11.37;8.30;;;0.50;1.00;;;;;;5018518;28;20195;-52
2021/12/03 05:03:43;;;;;;;15.03;9.60;;;0.60;99.90;;;;;;5015804;28;20274;-52
2021/12/03 05:06:14;;;;;;;13.70;9.30;;;0.60;99.90;;;;;;5015940;28;20195;-52
2021/12/03 05:08:40;;;;;;;12.60;8.33;;;0.60;99.90;;;;;;5016709;28;20215;-52
2021/12/03 05:11:05;;;;;;;15.13;8.17;;;0.60;99.90;;;;;;5016049;28;20474;-52
2021/12/03 05:13:33;;;;;;;13.77;8.97;;;0.60;99.90;;;;;;5018047;28;20210;-52
2021/12/03 05:15:59;;;;;;;13.63;9.00;;;0.70;1.00;;;;;;5017946;28;20285;-52
2021/12/03 05:18:28;;;;;;;10.80;7.83;;;0.80;1.00;;;;;;5012083;28;20453;-52
2021/12/03 05:20:56;;;;;;;12.33;7.33;;;0.90;1.00;;;;;;5018570;28;20499;-52
2021/12/03 05:23:24;;;;;;;10.97;7.70;;;0.90;1.00;;;;;;5016906;28;20480;-52
2021/12/03 05:25:49;;;;;;;11.30;7.47;;;1.00;1.00;;;;;;5016271;28;20442;-52
2021/12/03 05:28:16;;;;;;;11.93;7.97;;;1.10;1.00;;;;;;5017608;28;20466;-52
2021/12/03 05:30:42;;;;;;;9.60;7.07;;;1.10;99.90;;;;;;5014945;28;21307;-52
2021/12/03 05:33:09;;;;;;;11.47;7.43;;;1.00;1.00;;;;;;5015088;28;21122;-52
2021/12/03 05:35:34;;;;;;;11.10;7.33;;;1.00;99.90;;;;;;5018068;28;20777;-52
2021/12/03 05:38:00;;;;;;;17.43;8.07;;;1.00;99.90;;;;;;5015837;28;20454;-52
2021/12/03 05:40:26;;;;;;;12.27;7.97;;;0.90;99.90;;;;;;5017163;28;20249;-52
2021/12/03 05:42:52;;;;;;;12.03;7.40;;;1.00;1.00;;;;;;5018259;28;20533;-52
2021/12/03 05:45:22;;;;;;;12.00;8.10;;;1.00;1.00;;;;;;5015033;28;20206;-52
2021/12/03 05:47:48;;;;;;;11.20;7.80;;;1.00;99.90;;;;;;5015316;28;20187;-52
2021/12/03 05:50:15;;;;;;;13.67;8.57;;;1.10;1.00;;;;;;5016624;28;20520;-52
2021/12/03 05:52:42;;;;;;;14.23;9.10;;;1.00;1.00;;;;;;5014579;28;20569;-52
2021/12/03 05:55:08;;;;;;;10.40;8.77;;;0.90;1.00;;;;;;5017136;28;20445;-52
2021/12/03 05:57:34;;;;;;;11.93;8.97;;;0.90;1.00;;;;;;5018719;28;20441;-54
2021/12/03 06:00:01;;;;;;;17.17;9.70;;;0.90;99.90;;;;;;5014249;28;20441;-52
2021/12/03 06:02:27;;;;;;;13.07;9.33;;;1.00;1.00;;;;;;5017720;28;20445;-51
2021/12/03 06:04:52;;;;;;;11.87;8.67;;;1.00;99.90;;;;;;5015904;28;20437;-52
2021/12/03 06:07:18;;;;;;;16.50;10.20;;;1.00;1.00;;;;;;5014499;28;20903;-52
2021/12/03 06:09:45;;;;;;;16.70;10.27;;;0.90;1.00;;;;;;5019335;28;20203;-52
2021/12/03 06:12:10;;;;;;;14.10;9.90;;;1.00;99.90;;;;;;5015022;28;20261;-52
2021/12/03 06:14:36;;;;;;;14.80;9.37;;;0.90;99.90;;;;;;5018275;28;20500;-53
2021/12/03 06:17:02;;;;;;;13.40;9.63;;;0.90;1.00;;;;;;5017561;28;20282;-53
2021/12/03 06:19:27;;;;;;;16.10;9.70;;;0.90;1.00;;;;;;5014586;28;20183;-52
2021/12/03 06:21:53;;;;;;;18.43;10.63;;;0.90;1.00;;;;;;5015972;28;20191;-52
2021/12/03 06:24:19;;;;;;;16.70;10.60;;;0.90;99.90;;;;;;5017208;28;20942;-52
2021/12/03 06:26:45;;;;;;;14.60;10.30;;;1.00;99.90;;;;;;5014876;28;20183;-52
2021/12/03 06:29:10;;;;;;;16.83;10.10;;;0.90;99.90;;;;;;5017409;28;20507;-52
2021/12/03 06:31:36;;;;;;;14.20;9.47;;;1.00;77.80;;;;;;5016472;28;20191;-51
2021/12/03 06:34:02;;;;;;;14.30;9.33;;;1.00;99.90;;;;;;5017881;28;20189;-52
2021/12/03 06:36:28;;;;;;;15.70;10.40;;;1.00;99.90;;;;;;5017004;28;20217;-52
2021/12/03 06:38:53;;;;;;;14.73;10.57;;;0.90;1.00;;;;;;5014939;28;20525;-52
2021/12/03 06:41:19;;;;;;;16.10;9.93;;;0.90;99.90;;;;;;5017082;28;20187;-52
2021/12/03 06:43:45;;;;;;;15.33;10.03;;;0.90;99.90;;;;;;5020756;28;20194;-51
2021/12/03 06:46:10;;;;;;;17.97;10.20;;;0.90;99.90;;;;;;5018269;28;20241;-52
2021/12/03 06:48:36;;;;;;;20.80;10.20;;;1.00;99.90;;;;;;5019845;28;20206;-51
2021/12/03 06:51:02;;;;;;;17.10;10.17;;;1.00;99.90;;;;;;5021278;28;20242;-53
2021/12/03 06:53:39;;;;;;;15.43;10.63;;;1.00;1.00;;;;;;5018823;28;20312;-51
2021/12/03 06:56:05;;;;;;;18.03;10.40;;;1.00;1.00;;;;;;5019111;28;20474;-52
2021/12/03 06:58:31;;;;;;;16.13;10.60;;;0.90;99.90;;;;;;5020226;28;20444;-52
2021/12/03 07:00:59;;;;;;;23.37;10.87;;;0.90;1.00;;;;;;5019008;28;20452;-52
2021/12/03 07:03:25;;;;;;;20.30;12.33;;;0.90;1.00;;;;;;5018124;28;20202;-52
2021/12/03 07:05:50;;;;;;;15.20;11.40;;;0.90;99.90;;;;;;5021596;28;20934;-52
2021/12/03 07:08:16;;;;;;;26.03;11.73;;;1.00;83.30;;;;;;5020096;28;20199;-52
2021/12/03 07:10:42;;;;;;;17.00;11.20;;;0.90;52.20;;;;;;5020409;28;20270;-52
2021/12/03 07:13:07;;;;;;;15.60;11.60;;;0.90;99.90;;;;;;5020803;28;20293;-52
2021/12/03 07:15:34;;;;;;;23.23;10.93;;;1.00;99.90;;;;;;5018620;28;20195;-52
2021/12/03 07:18:00;;;;;;;15.83;11.57;;;1.00;99.90;;;;;;5019609;28;20240;-53
2021/12/03 07:20:27;;;;;;;18.17;11.10;;;1.00;99.90;;;;;;5020415;28;20453;-52
2021/12/03 07:22:54;;;;;;;16.43;12.00;;;1.00;90.30;;;;;;5019733;28;20966;-51
2021/12/03 07:25:20;;;;;;;16.50;11.43;;;1.00;99.90;;;;;;5020189;28;20998;-52
2021/12/03 07:27:46;;;;;;;24.47;12.17;;;1.00;1.00;;;;;;5017890;28;20446;-52
2021/12/03 07:30:13;;;;;;;16.63;11.47;;;1.00;1.00;;;;;;5019507;28;20460;-51
2021/12/03 07:32:39;;;;;;;20.10;11.77;;;1.00;99.90;;;;;;5021155;28;20222;-51
2021/12/03 07:35:06;;;;;;;17.60;11.93;;;1.00;99.90;;;;;;5017270;28;20441;-52
2021/12/03 07:37:32;;;;;;;17.00;12.13;;;1.00;1.00;;;;;;5018924;28;20449;-52
2021/12/03 07:40:06;;;;;;;19.20;12.30;;;1.00;1.00;;;;;;5019636;28;20439;-51
2021/12/03 07:42:33;;;;;;;17.37;11.53;;;1.00;1.00;;;;;;5021551;28;20314;-52
2021/12/03 07:44:59;;;;;;;20.70;12.83;;;1.00;1.00;;;;;;5020568;28;20582;-52
2021/12/03 07:47:25;;;;;;;17.83;11.57;;;1.00;22.20;;;;;;5022616;28;20534;-52
2021/12/03 07:49:51;;;;;;;21.90;11.73;;;1.00;99.90;;;;;;5017641;28;20234;-52
2021/12/03 07:52:19;;;;;;;16.40;11.70;;;1.00;99.90;;;;;;5015692;28;20602;-52
2021/12/03 07:54:44;;;;;;;14.60;11.10;;;1.10;1.00;;;;;;5020506;28;20537;-52
2021/12/03 07:57:10;;;;;;;25.83;12.70;;;1.10;99.90;;;;;;5017122;28;20868;-51
2021/12/03 07:59:36;;;;;;;22.90;12.37;;;1.10;1.00;;;;;;5023125;28;20569;-53
2021/12/03 08:02:02;;;;;;;19.67;12.50;;;1.10;99.90;;;;;;5018146;28;20974;-52
2021/12/03 08:04:28;;;;;;;20.33;11.40;;;1.10;1.00;;;;;;5017629;28;20203;-51
2021/12/03 08:06:54;;;;;;;15.03;10.73;;;1.10;1.00;;;;;;5019163;28;20441;-52
2021/12/03 08:09:21;;;;;;;17.00;10.23;;;1.20;1.00;;;;;;5017407;28;20559;-51
2021/12/03 08:11:47;;;;;;;15.90;11.47;;;1.20;1.00;;;;;;5018373;28;20872;-53
2021/12/03 08:14:12;;;;;;;18.90;12.37;;;1.20;99.90;;;;;;5020900;28;20788;-52
2021/12/03 08:16:39;;;;;;;18.13;11.20;;;1.20;99.90;;;;;;5016261;28;20191;-52
2021/12/03 08:19:05;;;;;;;16.40;10.97;;;1.20;99.90;;;;;;5019290;28;20211;-51
2021/12/03 08:21:31;;;;;;;16.17;11.97;;;1.20;99.90;;;;;;5019425;28;20439;-52
2021/12/03 08:23:59;;;;;;;22.23;11.83;;;1.30;97.10;;;;;;5017484;28;20564;-52
2021/12/03 08:26:26;;;;;;;16.67;11.70;;;1.30;44.90;;;;;;5020278;28;20441;-52
2021/12/03 08:28:51;;;;;;;16.93;10.90;;;1.30;1.00;;;;;;5014395;28;20442;-51
2021/12/03 08:31:18;;;;;;;16.40;10.87;;;1.30;99.90;;;;;;5020742;28;20460;-52
2021/12/03 08:33:44;;;;;;;16.57;11.60;;;1.30;1.00;;;;;;5017064;28;20242;-52
2021/12/03 08:36:09;;;;;;;15.47;10.87;;;1.40;99.90;;;;;;5016494;28;20532;-52
2021/12/03 08:38:35;;;;;;;17.33;11.10;;;1.40;1.00;;;;;;5018505;28;20438;-51
2021/12/03 08:41:00;;;;;;;18.70;11.63;;;1.40;1.00;;;;;;5016687;28;20680;-51
2021/12/03 08:43:26;;;;;;;15.83;11.50;;;1.40;99.90;;;;;;5017717;28;20199;-52
2021/12/03 08:45:54;;;;;;;18.33;12.30;;;1.40;54.80;;;;;;5019797;28;20206;-53
2021/12/03 08:48:26;;;;;;;16.33;11.80;;;1.50;1.00;;;;;;5015559;28;20218;-53
2021/12/03 08:51:12;;;;;;;20.83;12.87;;;1.40;72.70;;;;;;5014647;28;20489;-52
2021/12/03 08:56:21;;;;;;;22.83;13.87;;;1.40;16.40;;;;;;5033373;28;20992;-52
2021/12/03 08:58:47;;;;;;;22.00;12.67;;;1.40;1.00;;;;;;5035755;28;20426;-53
2021/12/03 09:01:14;;;;;;;21.67;13.50;;;1.50;99.90;;;;;;5030373;28;20669;-52
2021/12/03 09:03:39;;;;;;;30.53;14.60;;;1.40;99.90;;;;;;5026495;28;20278;-52
2021/12/03 09:06:05;;;;;;;29.70;16.77;;;1.50;99.90;;;;;;5010948;28;21031;-52
2021/12/03 09:08:31;;;;;;;24.67;14.80;;;1.60;1.00;;;;;;5020209;28;20199;-53
2021/12/03 09:10:57;;;;;;;25.00;15.10;;;1.60;99.90;;;;;;5040136;28;20213;-53
2021/12/03 09:13:23;;;;;;;29.63;14.83;;;1.60;99.90;;;;;;5014447;28;20481;-52
2021/12/03 09:15:57;;;;;;;25.00;15.03;;;1.60;1.00;;;;;;5018103;28;20202;-52
2021/12/03 09:18:32;;;;;;;24.17;15.40;;;1.60;1.00;;;;;;5018497;28;20536;-52
2021/12/03 09:21:04;;;;;;;28.67;16.27;;;1.60;99.90;;;;;;5018008;28;20438;-51
2021/12/03 09:23:41;;;;;;;27.63;16.63;;;1.70;1.00;;;;;;5017252;28;20804;-52
2021/12/03 09:26:13;;;;;;;28.83;16.07;;;1.70;99.90;;;;;;5015785;28;20946;-52
2021/12/03 09:28:42;;;;;;;30.50;17.43;;;1.70;1.00;;;;;;5019427;28;20587;-52
2021/12/03 09:31:10;;;;;;;27.50;16.70;;;1.70;99.90;;;;;;5017902;28;20947;-51
2021/12/03 09:33:37;;;;;;;29.87;17.20;;;1.80;1.00;;;;;;5014616;28;21068;-52
2021/12/03 09:36:04;;;;;;;26.67;15.90;;;1.90;99.90;;;;;;5018921;28;20912;-51
2021/12/03 09:38:34;;;;;;;30.70;17.20;;;1.90;99.90;;;;;;5021714;28;20801;-52
2021/12/03 09:41:15;;;;;;;29.37;17.00;;;1.90;1.00;;;;;;5029807;28;20532;-52
2021/12/03 09:43:49;;;;;;;31.07;16.93;;;1.90;68.30;;;;;;5027645;28;20802;-52
2021/12/03 09:46:19;;;;;;;28.77;16.13;;;1.90;1.00;;;;;;5030384;28;20907;-52
2021/12/03 09:51:28;;;;;;;31.80;18.07;;;1.90;99.90;;;;;;5030015;28;20481;-52
2021/12/03 09:56:41;;;;;;;33.87;16.33;;;1.90;99.90;;;;;;5029852;28;20902;-52
2021/12/03 10:02:01;;;;;;;34.27;17.10;;;1.90;99.90;;;;;;5029630;28;20437;-53
2021/12/03 10:15:32;;;;;;;34.33;17.10;;;1.90;1.00;;;;;;5022053;28;20461;-51
2021/12/03 10:21:05;;;;;;;34.10;16.50;;;1.90;99.90;;;;;;5007596;28;20464;-52
2021/12/03 10:24:18;;;;;;;34.40;16.73;;;1.80;99.90;;;;;;5030148;28;20421;-51
2021/12/03 10:32:42;;;;;;;37.10;17.10;;;1.80;99.90;;;;;;5022485;28;20555;-52
2021/12/03 10:38:06;;;;;;;35.17;18.53;;;1.90;1.00;;;;;;5030029;28;20923;-52
2021/12/03 10:57:23;;;;;;;42.00;19.20;;;2.10;1.00;;;;;;5030150;28;20458;-52
2021/12/03 11:08:02;;;;;;;36.03;19.50;;;2.20;99.90;;;;;;5029967;28;20422;-51
2021/12/03 11:19:26;;;;;;;40.20;17.47;;;2.30;99.90;;;;;;5009988;28;20422;-51
2021/12/03 11:25:32;;;;;;;42.70;18.80;;;2.30;99.90;;;;;;5010137;28;20509;-53
2021/12/03 11:30:29;;;;;;;45.53;19.90;;;2.40;99.90;;;;;;5013604;28;20885;-52
2021/12/03 11:36:19;;;;;;;47.20;21.53;;;2.40;99.90;;;;;;5013641;28;20418;-51
2021/12/03 11:42:05;;;;;;;48.77;19.10;;;2.40;1.00;;;;;;5013542;28;20414;-56
2021/12/03 11:45:12;;;;;;;44.70;18.87;;;2.30;1.00;;;;;;5013490;28;20433;-52
2021/12/03 11:56:11;;;;;;;48.60;20.67;;;2.40;1.00;;;;;;5013313;28;20513;-52
2021/12/03 11:58:35;;;;;;;51.83;21.03;;;2.50;1.00;;;;;;5012725;28;20509;-53
2021/12/03 12:07:49;;;;;;;44.40;21.03;;;2.50;64.10;;;;;;5012860;28;20450;-54
2021/12/03 12:30:18;;;;;;;51.70;19.27;;;2.60;99.90;;;;;;5032216;28;20421;-54
2021/12/03 12:57:50;;;;;;;57.17;20.70;;;3.00;52.50;;;;;;5012104;28;20433;-54
2021/12/03 13:06:58;;;;;;;50.33;19.60;;;3.00;1.00;;;;;;5012186;28;20426;-53
2021/12/03 13:39:20;;;;;;;48.30;18.83;;;3.20;99.90;;;;;;5011587;28;20836;-54
2021/12/03 14:05:28;;;;;;;51.47;18.80;;;3.20;1.00;;;;;;5030569;28;20198;-53
2021/12/03 14:22:58;;;;;;;44.47;18.10;;;3.20;12.80;;;;;;5030224;28;20421;-54
2021/12/03 14:48:42;;;;;;;45.43;18.00;;;2.80;1.00;;;;;;5029931;28;20465;-53
2021/12/03 14:54:30;;;;;;;47.13;17.47;;;2.70;19.50;;;;;;5030216;28;20480;-53
2021/12/03 14:57:16;;;;;;;39.37;16.63;;;2.70;77.90;;;;;;5030056;28;20753;-52
2021/12/03 14:59:55;;;;;;;49.97;16.83;;;2.70;1.00;;;;;;5030185;28;20425;-53
2021/12/03 15:02:36;;;;;;;35.70;16.10;;;2.70;99.90;;;;;;5032133;28;20945;-52
2021/12/03 15:05:14;;;;;;;37.00;17.23;;;2.60;1.00;;;;;;5033461;28;20440;-52
2021/12/03 15:07:46;;;;;;;36.97;16.20;;;2.60;1.00;;;;;;5033136;28;20934;-52
2021/12/03 15:10:23;;;;;;;41.93;17.33;;;2.70;41.50;;;;;;5033719;28;20472;-52
2021/12/03 15:26:06;;;;;;;33.10;17.87;;;2.50;1.00;;;;;;5033426;28;20453;-53
2021/12/03 15:29:07;;;;;;;31.90;15.97;;;2.40;99.90;;;;;;5033227;28;20471;-53
2021/12/03 15:31:43;;;;;;;36.30;15.53;;;2.40;1.00;;;;;;5032776;28;20428;-53
2021/12/03 15:34:28;;;;;;;33.33;16.00;;;2.40;1.00;;;;;;5014958;28;20555;-53
2021/12/03 15:53:58;;;;;;;25.47;13.63;;;2.30;1.00;;;;;;5032736;28;20551;-53
2021/12/03 15:58:35;;;;;;;29.87;15.40;;;2.30;99.90;;;;;;5032607;28;20433;-53
2021/12/03 16:04:01;;;;;;;29.23;14.00;;;2.30;99.90;;;;;;5021614;28;20448;-52
2021/12/03 16:06:36;;;;;;;31.00;13.10;;;2.30;99.90;;;;;;5032486;28;20429;-53
2021/12/03 16:11:57;;;;;;;24.60;13.53;;;2.30;1.00;;;;;;5011357;28;20414;-52
2021/12/03 16:44:39;;;;;;;21.10;12.90;;;2.30;1.00;;;;;;5025384;28;20487;-53
2021/12/03 16:52:33;;;;;;;23.80;12.43;;;2.40;1.00;;;;;;5031500;28;20503;-54
2021/12/03 16:55:02;;;;;;;21.17;12.77;;;2.40;1.00;;;;;;5031863;28;20410;-53
2021/12/03 16:57:33;;;;;;;17.70;10.93;;;2.40;1.00;;;;;;5021192;28;20442;-53
2021/12/03 17:00:02;;;;;;;20.20;12.57;;;2.40;10.00;;;;;;5049520;28;20424;-53
2021/12/03 17:02:38;;;;;;;33.80;13.70;;;2.40;12.30;;;;;;5045153;28;20442;-54
2021/12/03 17:05:23;;;;;;;21.60;12.80;;;2.50;7.50;;;;;;5025585;28;20532;-53
2021/12/03 17:16:14;;;;;;;26.30;13.57;;;2.50;1.00;;;;;;5035527;28;20474;-54
2021/12/03 17:57:36;;;;;;;19.00;11.33;;;2.60;5.10;;;;;;5030268;28;20429;-51
2021/12/03 18:00:09;;;;;;;26.30;12.60;;;2.70;13.30;;;;;;5025182;28;20431;-53
2021/12/03 18:02:42;;;;;;;18.30;11.60;;;2.60;24.40;;;;;;5011049;28;20446;-53
2021/12/03 18:16:33;;;;;;;17.20;11.47;;;2.70;86.50;;;;;;5030194;28;20471;-54
2021/12/03 18:43:25;;;;;;;16.30;12.07;;;3.00;99.90;;;;;;5015364;28;20471;-53
2021/12/03 18:48:45;;;;;;;21.60;13.13;;;3.00;99.90;;;;;;5027050;28;20486;-53
2021/12/03 18:56:17;;;;;;;18.90;12.07;;;3.10;99.90;;;;;;5014854;28;20179;-53
2021/12/03 18:58:42;;;;;;;22.27;14.50;;;3.10;99.90;;;;;;5014898;28;20965;-53
2021/12/03 19:01:10;;;;;;;21.47;12.73;;;3.10;99.90;;;;;;5014748;28;20435;-53
2021/12/03 19:06:41;;;;;;;20.90;12.90;;;3.10;99.90;;;;;;5021333;28;20445;-54
2021/12/03 19:09:02;;;;;;;21.60;13.67;;;3.10;99.90;;;;;;5023668;28;20802;-53
2021/12/03 19:11:40;;;;;;;26.50;14.30;;;3.20;99.90;;;;;;5020328;28;20444;-53
2021/12/03 19:14:07;;;;;;;23.20;13.50;;;3.20;99.90;;;;;;5033821;28;20499;-50
2021/12/03 19:16:34;;;;;;;24.33;15.40;;;3.20;99.90;;;;;;5034372;28;20477;-54
2021/12/03 19:19:00;;;;;;;23.10;14.10;;;3.20;99.90;;;;;;5024034;28;20430;-53
2021/12/03 19:21:28;;;;;;;19.20;13.03;;;3.30;99.90;;;;;;5014559;28;20418;-52
2021/12/03 19:23:58;;;;;;;24.50;13.87;;;3.30;99.90;;;;;;5018151;28;20529;-53
2021/12/03 19:26:27;;;;;;;20.00;13.27;;;3.30;99.90;;;;;;5014902;28;20824;-53
2021/12/03 19:28:54;;;;;;;31.90;14.90;;;3.30;99.90;;;;;;5020512;28;21017;-53
2021/12/03 19:31:22;;;;;;;22.07;13.90;;;3.30;99.90;;;;;;5030813;28;20930;-53
2021/12/03 19:33:48;;;;;;;25.43;14.30;;;3.30;99.90;;;;;;5034121;28;20473;-53
2021/12/03 19:36:25;;;;;;;21.23;13.70;;;3.30;99.90;;;;;;5033786;28;20438;-53
2021/12/03 19:38:53;;;;;;;19.63;13.57;;;3.30;99.90;;;;;;5023206;28;20223;-53
2021/12/03 19:41:44;;;;;;;22.17;14.83;;;3.40;99.90;;;;;;5032268;28;20517;-53